Time;durP1;ratioP1;P1;durP2;ratioP2;P2;SDS_P1;SDS_P2;PMS_P1;PMS_P2;Temp;Humidity;BMP_temperature;BMP_pressure;BME280_temperature;BME280_humidity;BME280_pressure;Samples;Min_cycle;Max_cycle;Signal;HPM_P1;HPM_P2
2023/01/06 00:00:07;;;;;;;8.65;3.70;;;;;;;;;;6107317;19;20010;-73
2023/01/06 00:02:15;;;;;;;7.70;3.60;;;;;;;;;;6101834;19;20010;-73
2023/01/06 00:04:20;;;;;;;9.55;4.40;;;;;;;;;;6102615;19;20015;-73
2023/01/06 00:06:26;;;;;;;9.80;4.18;;;;;;;;;;6104800;19;20023;-72
2023/01/06 00:08:35;;;;;;;11.75;4.50;;;;;;;;;;6101385;19;20013;-72
2023/01/06 00:10:40;;;;;;;13.63;4.40;;;;;;;;;;6104662;19;20078;-73
2023/01/06 00:12:46;;;;;;;10.70;3.92;;;;;;;;;;6102447;19;20431;-73
2023/01/06 00:14:51;;;;;;;9.27;4.20;;;;;;;;;;6106506;19;20038;-73
2023/01/06 00:16:56;;;;;;;10.38;4.28;;;;;;;;;;6103903;19;20022;-74
2023/01/06 00:19:05;;;;;;;6.68;3.58;;;;;;;;;;6104623;19;20031;-74
2023/01/06 00:21:11;;;;;;;8.10;3.88;;;;;;;;;;6098975;19;20019;-74
2023/01/06 00:23:16;;;;;;;6.00;3.65;;;;;;;;;;6103091;19;20007;-75
2023/01/06 00:25:23;;;;;;;7.85;3.90;;;;;;;;;;6104335;19;20022;-72
2023/01/06 00:27:29;;;;;;;10.25;4.03;;;;;;;;;;6102065;19;20006;-74
2023/01/06 00:29:34;;;;;;;7.43;3.53;;;;;;;;;;6103894;19;20333;-74
2023/01/06 00:31:39;;;;;;;7.28;3.47;;;;;;;;;;6103009;19;20500;-72
2023/01/06 00:33:45;;;;;;;8.35;4.50;;;;;;;;;;6102580;19;20014;-72
2023/01/06 00:35:49;;;;;;;8.32;4.20;;;;;;;;;;6101019;19;20517;-72
2023/01/06 00:37:54;;;;;;;9.27;3.90;;;;;;;;;;6101711;19;20023;-74
2023/01/06 00:39:59;;;;;;;10.93;3.95;;;;;;;;;;6104591;19;20019;-74
2023/01/06 00:42:07;;;;;;;9.07;3.75;;;;;;;;;;6102566;19;20415;-74
2023/01/06 00:44:15;;;;;;;8.65;4.15;;;;;;;;;;6102272;19;20025;-72
2023/01/06 00:46:21;;;;;;;7.43;4.00;;;;;;;;;;6102085;19;20447;-72
2023/01/06 00:48:26;;;;;;;9.82;3.83;;;;;;;;;;6102261;19;20015;-72
2023/01/06 00:50:35;;;;;;;8.48;4.05;;;;;;;;;;6102080;19;20428;-72
2023/01/06 00:52:43;;;;;;;8.18;4.60;;;;;;;;;;6100963;19;20015;-72
2023/01/06 00:54:47;;;;;;;11.07;3.97;;;;;;;;;;6099739;19;20017;-72
2023/01/06 00:56:54;;;;;;;7.72;3.55;;;;;;;;;;6103107;19;20081;-75
2023/01/06 00:59:03;;;;;;;9.98;3.90;;;;;;;;;;6104166;19;20014;-74
2023/01/06 01:01:09;;;;;;;10.45;3.47;;;;;;;;;;6097458;19;20011;-73
2023/01/06 01:03:15;;;;;;;9.38;3.88;;;;;;;;;;6102370;19;20015;-73
2023/01/06 01:05:21;;;;;;;11.70;4.40;;;;;;;;;;6102362;19;20016;-72
2023/01/06 01:07:26;;;;;;;9.43;4.32;;;;;;;;;;6099023;19;20038;-72
2023/01/06 01:09:33;;;;;;;9.13;3.53;;;;;;;;;;6101437;19;20011;-72
2023/01/06 01:13:56;;;;;;;8.57;3.90;;;;;;;;;;6100248;19;20574;-72
2023/01/06 01:16:09;;;;;;;9.60;4.43;;;;;;;;;;6103226;19;20078;-73
2023/01/06 01:18:14;;;;;;;7.55;4.05;;;;;;;;;;6101884;19;20631;-73
2023/01/06 01:20:19;;;;;;;7.93;3.88;;;;;;;;;;6100104;19;20011;-74
2023/01/06 01:22:25;;;;;;;8.80;3.65;;;;;;;;;;6102076;19;20553;-74
2023/01/06 01:24:33;;;;;;;9.15;3.80;;;;;;;;;;6098566;19;20015;-73
2023/01/06 01:26:40;;;;;;;8.27;4.00;;;;;;;;;;6102320;19;20086;-72
2023/01/06 01:28:45;;;;;;;6.57;3.58;;;;;;;;;;6101242;19;20492;-72
2023/01/06 01:31:03;;;;;;;8.10;3.80;;;;;;;;;;6100879;19;20255;-72
2023/01/06 01:33:12;;;;;;;8.95;3.72;;;;;;;;;;6100195;19;20530;-73
2023/01/06 01:35:17;;;;;;;7.40;3.83;;;;;;;;;;6102496;19;20094;-72
2023/01/06 01:37:22;;;;;;;9.35;4.13;;;;;;;;;;6101971;19;20018;-71
2023/01/06 01:39:33;;;;;;;8.20;4.18;;;;;;;;;;6102772;19;20034;-72
2023/01/06 01:41:40;;;;;;;9.65;4.07;;;;;;;;;;6101417;19;20019;-72
2023/01/06 01:43:47;;;;;;;9.40;4.35;;;;;;;;;;6102812;19;20822;-73
2023/01/06 01:45:54;;;;;;;7.90;3.80;;;;;;;;;;6100557;19;20082;-74
2023/01/06 01:48:02;;;;;;;8.15;3.90;;;;;;;;;;6101315;19;20018;-74
2023/01/06 01:50:14;;;;;;;6.78;3.20;;;;;;;;;;6102888;19;20034;-75
2023/01/06 01:52:20;;;;;;;12.75;4.25;;;;;;;;;;6096979;19;20010;-73
2023/01/06 01:54:32;;;;;;;7.18;3.92;;;;;;;;;;6098910;19;20361;-74
2023/01/06 01:56:41;;;;;;;10.18;3.42;;;;;;;;;;6103389;19;20517;-73
2023/01/06 01:58:50;;;;;;;7.38;3.53;;;;;;;;;;6102419;19;20471;-75
2023/01/06 02:00:55;;;;;;;9.73;3.70;;;;;;;;;;6103354;19;20018;-73
2023/01/06 02:03:00;;;;;;;10.25;4.78;;;;;;;;;;6102390;19;20450;-74
2023/01/06 02:05:07;;;;;;;7.72;3.92;;;;;;;;;;6102895;19;20014;-74
2023/01/06 02:07:15;;;;;;;7.63;3.70;;;;;;;;;;6100875;19;20348;-74
2023/01/06 02:09:23;;;;;;;6.05;3.60;;;;;;;;;;6103795;19;20018;-72
2023/01/06 02:11:31;;;;;;;5.68;2.95;;;;;;;;;;6102020;19;20021;-72
2023/01/06 02:13:39;;;;;;;7.97;3.47;;;;;;;;;;6099029;19;20006;-73
2023/01/06 02:15:45;;;;;;;6.60;3.28;;;;;;;;;;6103076;19;20030;-73
2023/01/06 02:18:25;;;;;;;7.85;3.50;;;;;;;;;;6101344;19;20010;-73
2023/01/06 02:20:49;;;;;;;6.65;3.30;;;;;;;;;;6098729;19;20015;-72
2023/01/06 02:23:19;;;;;;;7.88;3.38;;;;;;;;;;6101754;19;20350;-73
2023/01/06 02:25:55;;;;;;;7.40;3.30;;;;;;;;;;6093870;19;20018;-72
2023/01/06 02:28:46;;;;;;;7.03;3.13;;;;;;;;;;6080176;19;20056;-73
2023/01/06 02:31:32;;;;;;;5.57;2.95;;;;;;;;;;6100523;19;20013;-73
2023/01/06 02:33:44;;;;;;;7.75;2.67;;;;;;;;;;6096144;19;20011;-73
2023/01/06 02:35:59;;;;;;;4.95;2.67;;;;;;;;;;6101597;19;20015;-72
2023/01/06 02:38:12;;;;;;;5.38;2.88;;;;;;;;;;6099138;19;20050;-72
2023/01/06 02:40:26;;;;;;;5.20;2.40;;;;;;;;;;6102072;19;20034;-73
2023/01/06 02:42:39;;;;;;;7.95;2.60;;;;;;;;;;6101417;19;20165;-74
2023/01/06 02:44:51;;;;;;;6.32;2.47;;;;;;;;;;6100967;19;20472;-74
2023/01/06 02:47:12;;;;;;;8.63;3.03;;;;;;;;;;6100709;19;20025;-72
2023/01/06 02:49:28;;;;;;;6.85;2.40;;;;;;;;;;6099649;19;20010;-74
2023/01/06 02:51:39;;;;;;;9.02;3.13;;;;;;;;;;6100251;19;20015;-74
2023/01/06 02:53:50;;;;;;;8.98;2.53;;;;;;;;;;6097825;19;20066;-74
2023/01/06 02:55:58;;;;;;;6.55;2.38;;;;;;;;;;6102242;19;20014;-72
2023/01/06 02:58:07;;;;;;;6.88;2.40;;;;;;;;;;6099064;19;20015;-75
2023/01/06 03:00:18;;;;;;;6.57;2.40;;;;;;;;;;6099251;19;20017;-74
2023/01/06 03:02:24;;;;;;;5.78;2.60;;;;;;;;;;6100167;19;20006;-75
2023/01/06 03:04:36;;;;;;;7.93;2.30;;;;;;;;;;6099366;19;20010;-73
2023/01/06 03:06:43;;;;;;;5.85;2.53;;;;;;;;;;6099457;19;20007;-74
2023/01/06 03:08:50;;;;;;;6.65;2.20;;;;;;;;;;6099841;19;20537;-73
2023/01/06 03:10:56;;;;;;;4.57;2.20;;;;;;;;;;6100190;19;20118;-73
2023/01/06 03:13:04;;;;;;;4.50;2.17;;;;;;;;;;6106787;19;20015;-73
2023/01/06 03:15:14;;;;;;;4.53;1.85;;;;;;;;;;6103235;19;20494;-72
2023/01/06 03:17:19;;;;;;;5.22;2.63;;;;;;;;;;6105767;19;20018;-72
2023/01/06 03:19:25;;;;;;;6.03;2.47;;;;;;;;;;6103286;19;20175;-74
2023/01/06 03:21:40;;;;;;;6.65;2.30;;;;;;;;;;6104941;19;20011;-74
2023/01/06 03:23:45;;;;;;;7.90;2.47;;;;;;;;;;6105545;19;20007;-72
2023/01/06 03:25:50;;;;;;;8.88;2.50;;;;;;;;;;6103748;19;20025;-73
2023/01/06 03:27:56;;;;;;;8.43;2.67;;;;;;;;;;6104609;19;20456;-74
2023/01/06 03:30:01;;;;;;;9.23;3.72;;;;;;;;;;6104438;19;20147;-74
2023/01/06 03:32:12;;;;;;;4.43;2.30;;;;;;;;;;6105197;19;20337;-73
2023/01/06 03:34:22;;;;;;;8.02;2.83;;;;;;;;;;6106301;19;20015;-73
2023/01/06 03:36:35;;;;;;;7.75;2.85;;;;;;;;;;6102155;19;20129;-74
2023/01/06 03:38:50;;;;;;;3.72;2.22;;;;;;;;;;6104889;19;20078;-74
2023/01/06 03:40:59;;;;;;;7.15;2.35;;;;;;;;;;6105915;19;20038;-74
2023/01/06 03:43:15;;;;;;;10.50;2.45;;;;;;;;;;6104992;19;20010;-74
2023/01/06 03:45:41;;;;;;;4.80;2.30;;;;;;;;;;6101819;19;20219;-74
2023/01/06 03:47:54;;;;;;;6.57;2.30;;;;;;;;;;6104617;19;20010;-72
2023/01/06 03:50:00;;;;;;;;;;;;;;;;;;6104356;19;20027;-72
2023/01/06 03:52:15;;;;;;;8.55;2.50;;;;;;;;;;6104361;19;19978;-73
2023/01/06 03:54:28;;;;;;;4.18;2.20;;;;;;;;;;6105715;19;20334;-72
2023/01/06 03:56:33;;;;;;;;;;;;;;;;;;6105042;19;20603;-72
2023/01/06 03:58:39;;;;;;;6.07;2.78;;;;;;;;;;6105744;19;19921;-73
2023/01/06 04:00:44;;;;;;;7.95;2.65;;;;;;;;;;6106592;19;20474;-72
2023/01/06 04:02:49;;;;;;;7.97;2.65;;;;;;;;;;6103270;19;20553;-74
2023/01/06 04:05:09;;;;;;;5.63;2.65;;;;;;;;;;6105528;19;20018;-73
2023/01/06 04:07:17;;;;;;;6.47;2.55;;;;;;;;;;6103259;19;20006;-74
2023/01/06 04:09:22;;;;;;;6.60;2.25;;;;;;;;;;6105358;19;20011;-74
2023/01/06 04:13:44;;;;;;;7.93;2.35;;;;;;;;;;6105482;19;20015;-74
2023/01/06 04:15:49;;;;;;;4.78;2.40;;;;;;;;;;6106399;19;20014;-74
2023/01/06 04:17:54;;;;;;;8.50;2.53;;;;;;;;;;6105261;19;20349;-73
2023/01/06 04:19:59;;;;;;;5.38;2.45;;;;;;;;;;6103509;19;20539;-73
2023/01/06 04:22:04;;;;;;;4.45;2.40;;;;;;;;;;6103471;19;20024;-72
2023/01/06 04:24:14;;;;;;;7.13;2.22;;;;;;;;;;6105015;19;20363;-73
2023/01/06 04:26:19;;;;;;;6.65;2.55;;;;;;;;;;6104434;19;20327;-73
2023/01/06 04:28:24;;;;;;;4.50;2.50;;;;;;;;;;6105982;19;20010;-73
2023/01/06 04:30:29;;;;;;;8.80;2.53;;;;;;;;;;6098429;19;20078;-73
2023/01/06 04:32:34;;;;;;;5.78;2.28;;;;;;;;;;6105246;19;20006;-73
2023/01/06 04:34:43;;;;;;;4.80;2.45;;;;;;;;;;6103787;19;20034;-74
2023/01/06 04:36:48;;;;;;;4.85;2.25;;;;;;;;;;6105342;19;20031;-74
2023/01/06 04:38:53;;;;;;;4.57;2.53;;;;;;;;;;6105639;19;20467;-73
2023/01/06 04:41:03;;;;;;;3.88;2.30;;;;;;;;;;6103263;19;20521;-73
2023/01/06 04:43:12;;;;;;;6.03;2.20;;;;;;;;;;6101878;19;20049;-73
2023/01/06 04:45:18;;;;;;;4.40;1.92;;;;;;;;;;6102289;19;20014;-72
2023/01/06 04:47:23;;;;;;;5.35;2.55;;;;;;;;;;6103040;19;20011;-73
2023/01/06 04:49:27;;;;;;;6.60;2.75;;;;;;;;;;6103456;19;20659;-74
2023/01/06 04:51:35;;;;;;;7.85;2.60;;;;;;;;;;6104499;19;20034;-74
2023/01/06 04:53:42;;;;;;;9.00;2.70;;;;;;;;;;6102487;19;20022;-75
2023/01/06 04:55:47;;;;;;;9.45;2.85;;;;;;;;;;6105337;19;20089;-75
2023/01/06 04:57:55;;;;;;;6.22;2.90;;;;;;;;;;6100606;19;20011;-73
2023/01/06 05:00:00;;;;;;;6.03;2.95;;;;;;;;;;6103630;19;20022;-74
2023/01/06 05:02:05;;;;;;;3.88;2.40;;;;;;;;;;6103615;19;20032;-72
2023/01/06 05:04:10;;;;;;;7.15;2.80;;;;;;;;;;6102709;19;20014;-73
2023/01/06 05:06:19;;;;;;;7.38;2.60;;;;;;;;;;6102706;19;20089;-73
2023/01/06 05:08:23;;;;;;;7.45;2.70;;;;;;;;;;6102428;19;20011;-73
2023/01/06 05:10:28;;;;;;;5.30;2.47;;;;;;;;;;6104027;19;20007;-73
2023/01/06 05:12:34;;;;;;;5.60;2.58;;;;;;;;;;6103293;19;20082;-72
2023/01/06 05:14:42;;;;;;;7.03;2.75;;;;;;;;;;6101113;19;20023;-72
2023/01/06 05:16:46;;;;;;;6.07;2.60;;;;;;;;;;6101176;19;20022;-74
2023/01/06 05:18:52;;;;;;;9.73;2.75;;;;;;;;;;6103302;19;20030;-73
2023/01/06 05:21:01;;;;;;;7.70;2.72;;;;;;;;;;6098365;19;20018;-73
2023/01/06 05:23:05;;;;;;;5.82;2.80;;;;;;;;;;6104054;19;20021;-73
2023/01/06 05:25:11;;;;;;;5.80;2.58;;;;;;;;;;6100621;19;20459;-73
2023/01/06 05:27:16;;;;;;;5.38;2.90;;;;;;;;;;6100479;19;20212;-70
2023/01/06 05:29:21;;;;;;;5.53;2.65;;;;;;;;;;6105162;19;20018;-71
2023/01/06 05:31:28;;;;;;;4.53;2.80;;;;;;;;;;6103483;19;20476;-71
2023/01/06 05:33:33;;;;;;;5.47;2.58;;;;;;;;;;6099491;19;20011;-71
2023/01/06 05:35:39;;;;;;;5.20;2.65;;;;;;;;;;6101015;19;20010;-73
2023/01/06 05:37:43;;;;;;;4.40;2.42;;;;;;;;;;6101558;19;20006;-72
2023/01/06 05:39:48;;;;;;;5.40;2.70;;;;;;;;;;6104527;19;20020;-73
2023/01/06 05:41:53;;;;;;;6.28;2.95;;;;;;;;;;6098688;19;20035;-73
2023/01/06 05:43:58;;;;;;;9.30;3.00;;;;;;;;;;6102864;19;20018;-74
2023/01/06 05:46:06;;;;;;;5.82;2.95;;;;;;;;;;6103587;19;20010;-74
2023/01/06 05:48:14;;;;;;;5.15;2.60;;;;;;;;;;6100320;19;20422;-71
2023/01/06 05:50:22;;;;;;;4.80;2.70;;;;;;;;;;6102132;19;20089;-71
2023/01/06 05:52:26;;;;;;;6.25;2.55;;;;;;;;;;6098281;19;20624;-73
2023/01/06 05:54:31;;;;;;;5.95;3.03;;;;;;;;;;6102547;19;20027;-73
2023/01/06 05:56:37;;;;;;;9.93;2.65;;;;;;;;;;6102309;19;20015;-71
2023/01/06 05:58:42;;;;;;;7.85;3.10;;;;;;;;;;6102566;19;20010;-71
2023/01/06 06:00:47;;;;;;;4.35;2.60;;;;;;;;;;6101901;19;20020;-71
2023/01/06 06:02:52;;;;;;;7.30;2.95;;;;;;;;;;6098226;19;20439;-71
2023/01/06 06:04:59;;;;;;;5.22;2.88;;;;;;;;;;6099831;19;20011;-71
2023/01/06 06:07:06;;;;;;;7.07;2.60;;;;;;;;;;6102730;19;20344;-71
2023/01/06 06:09:14;;;;;;;5.97;2.55;;;;;;;;;;6095825;19;20336;-74
2023/01/06 06:11:21;;;;;;;7.38;3.58;;;;;;;;;;6104648;19;20090;-73
2023/01/06 06:13:26;;;;;;;6.97;3.10;;;;;;;;;;6103224;19;20009;-74
2023/01/06 06:15:32;;;;;;;6.03;3.08;;;;;;;;;;6103372;19;20011;-70
2023/01/06 06:17:37;;;;;;;8.02;3.47;;;;;;;;;;6102889;19;20123;-70
2023/01/06 06:19:42;;;;;;;8.00;4.30;;;;;;;;;;6103813;19;20011;-70
2023/01/06 06:21:50;;;;;;;8.38;4.07;;;;;;;;;;6101098;19;20018;-70
2023/01/06 06:23:56;;;;;;;7.00;4.18;;;;;;;;;;6101095;19;20511;-70
2023/01/06 06:26:01;;;;;;;8.15;4.18;;;;;;;;;;6100902;19;20010;-69
2023/01/06 06:28:06;;;;;;;6.90;4.07;;;;;;;;;;6101336;19;20023;-69
2023/01/06 06:30:12;;;;;;;8.65;3.70;;;;;;;;;;6101854;19;20025;-69
2023/01/06 06:32:17;;;;;;;8.75;4.43;;;;;;;;;;6102638;19;20341;-69
2023/01/06 06:34:24;;;;;;;5.22;3.65;;;;;;;;;;6104039;19;20536;-69
2023/01/06 06:36:32;;;;;;;6.80;3.90;;;;;;;;;;6102576;19;20330;-69
2023/01/06 06:38:40;;;;;;;6.68;4.00;;;;;;;;;;6103206;19;20006;-70
2023/01/06 06:40:46;;;;;;;8.45;3.67;;;;;;;;;;6104803;19;20016;-70
2023/01/06 06:42:53;;;;;;;6.05;3.25;;;;;;;;;;6102772;19;20504;-70
2023/01/06 06:44:57;;;;;;;6.20;2.97;;;;;;;;;;6106294;19;20222;-70
2023/01/06 06:47:02;;;;;;;6.10;3.50;;;;;;;;;;6107756;19;20498;-69
2023/01/06 06:49:08;;;;;;;5.07;3.05;;;;;;;;;;6103147;19;20011;-70
2023/01/06 06:51:15;;;;;;;5.47;2.67;;;;;;;;;;6106888;19;20014;-71
2023/01/06 06:53:20;;;;;;;4.78;2.55;;;;;;;;;;6105166;19;20775;-70
2023/01/06 06:55:28;;;;;;;5.32;3.15;;;;;;;;;;6105371;19;20018;-70
2023/01/06 06:57:33;;;;;;;6.55;3.20;;;;;;;;;;6105880;19;20532;-70
2023/01/06 06:59:38;;;;;;;7.57;3.75;;;;;;;;;;6105440;19;20018;-69
2023/01/06 07:01:43;;;;;;;6.03;2.72;;;;;;;;;;6104095;19;20503;-69
2023/01/06 07:03:49;;;;;;;7.13;2.75;;;;;;;;;;6103392;19;20019;-69
2023/01/06 07:05:54;;;;;;;8.40;3.25;;;;;;;;;;6104614;19;20002;-69
2023/01/06 07:07:59;;;;;;;10.30;3.15;;;;;;;;;;6104525;19;20018;-71
2023/01/06 07:10:04;;;;;;;4.82;2.58;;;;;;;;;;6105458;19;20074;-69
2023/01/06 07:12:13;;;;;;;5.00;2.90;;;;;;;;;;6101814;19;20017;-69
2023/01/06 07:14:18;;;;;;;8.32;2.65;;;;;;;;;;6105330;19;20409;-69
2023/01/06 07:16:25;;;;;;;7.22;2.50;;;;;;;;;;6107016;19;20323;-69
2023/01/06 07:18:31;;;;;;;8.13;2.78;;;;;;;;;;6108263;19;20400;-70
2023/01/06 07:20:40;;;;;;;8.55;2.55;;;;;;;;;;6104376;19;20014;-70
2023/01/06 07:22:45;;;;;;;8.85;2.60;;;;;;;;;;6107297;19;20010;-71
2023/01/06 07:24:51;;;;;;;8.02;2.50;;;;;;;;;;6102782;19;20027;-71
2023/01/06 07:26:56;;;;;;;6.35;2.55;;;;;;;;;;6102295;19;20010;-70
2023/01/06 07:29:06;;;;;;;15.45;3.35;;;;;;;;;;6104407;19;20044;-70
2023/01/06 07:31:11;;;;;;;9.43;2.95;;;;;;;;;;6104645;19;20011;-71
2023/01/06 07:33:16;;;;;;;13.88;3.65;;;;;;;;;;6105981;19;20011;-70
2023/01/06 07:35:21;;;;;;;11.93;3.17;;;;;;;;;;6106043;19;20538;-70
2023/01/06 07:37:26;;;;;;;15.55;3.25;;;;;;;;;;6105619;19;20017;-70
2023/01/06 07:39:31;;;;;;;16.45;3.42;;;;;;;;;;6103707;19;20014;-71
2023/01/06 07:41:36;;;;;;;11.73;3.67;;;;;;;;;;6106578;19;20014;-71
2023/01/06 07:43:41;;;;;;;12.30;4.07;;;;;;;;;;6102979;19;20014;-72
2023/01/06 07:45:50;;;;;;;12.45;2.92;;;;;;;;;;6105608;19;20030;-71
2023/01/06 07:47:57;;;;;;;12.82;2.90;;;;;;;;;;6104809;19;20632;-72
2023/01/06 07:50:02;;;;;;;17.77;3.75;;;;;;;;;;6107552;19;20015;-72
2023/01/06 07:52:08;;;;;;;18.13;3.35;;;;;;;;;;6107331;19;20003;-72
2023/01/06 07:54:17;;;;;;;20.55;3.47;;;;;;;;;;6108837;19;20349;-72
2023/01/06 07:56:23;;;;;;;14.68;3.40;;;;;;;;;;6105112;19;20035;-72
2023/01/06 07:58:28;;;;;;;18.85;3.47;;;;;;;;;;6106730;19;20751;-72
2023/01/06 08:00:36;;;;;;;14.27;2.80;;;;;;;;;;6109140;19;20104;-71
2023/01/06 08:02:44;;;;;;;16.08;3.00;;;;;;;;;;6108602;19;21457;-71
2023/01/06 08:04:51;;;;;;;17.67;3.40;;;;;;;;;;6109876;19;20010;-71
2023/01/06 08:06:56;;;;;;;13.57;2.85;;;;;;;;;;6105372;19;20490;-70
2023/01/06 08:09:03;;;;;;;13.25;3.10;;;;;;;;;;6105763;19;20459;-70
2023/01/06 08:11:10;;;;;;;15.52;3.33;;;;;;;;;;6108352;19;20014;-71
2023/01/06 08:13:15;;;;;;;11.80;2.83;;;;;;;;;;6108585;19;20086;-72
2023/01/06 08:15:23;;;;;;;11.85;2.92;;;;;;;;;;6107289;19;20010;-71
2023/01/06 08:17:28;;;;;;;13.15;3.83;;;;;;;;;;6108575;19;20084;-71
2023/01/06 08:19:38;;;;;;;19.60;3.20;;;;;;;;;;6106005;19;20024;-71
2023/01/06 08:21:43;;;;;;;15.13;3.75;;;;;;;;;;6104772;19;20107;-71
2023/01/06 08:23:48;;;;;;;13.95;2.78;;;;;;;;;;6107306;19;20331;-71
2023/01/06 08:25:53;;;;;;;9.90;2.95;;;;;;;;;;6109093;19;20015;-71
2023/01/06 08:27:59;;;;;;;12.90;3.03;;;;;;;;;;6108783;19;20098;-72
2023/01/06 08:30:04;;;;;;;12.35;2.83;;;;;;;;;;6106426;19;20042;-72
2023/01/06 08:32:09;;;;;;;11.02;2.72;;;;;;;;;;6107734;19;20014;-71
2023/01/06 08:34:16;;;;;;;8.52;2.33;;;;;;;;;;6106154;19;20530;-72
2023/01/06 08:36:25;;;;;;;9.27;2.88;;;;;;;;;;6107418;19;20035;-71
2023/01/06 08:38:31;;;;;;;13.27;2.63;;;;;;;;;;6107576;19;20098;-71
2023/01/06 08:40:36;;;;;;;13.55;2.55;;;;;;;;;;6107906;19;20499;-70
2023/01/06 08:42:41;;;;;;;8.52;2.70;;;;;;;;;;6109506;19;20109;-71
2023/01/06 08:44:46;;;;;;;8.05;2.70;;;;;;;;;;6107103;19;20007;-71
2023/01/06 08:46:51;;;;;;;7.93;2.70;;;;;;;;;;6106736;19;20019;-72
2023/01/06 08:48:58;;;;;;;7.10;2.72;;;;;;;;;;6104903;19;20006;-72
2023/01/06 08:51:06;;;;;;;9.07;2.50;;;;;;;;;;6105692;19;20369;-72
2023/01/06 08:53:14;;;;;;;9.90;2.50;;;;;;;;;;6103356;19;20011;-71
2023/01/06 08:55:19;;;;;;;10.43;2.50;;;;;;;;;;6105945;19;20566;-71
2023/01/06 08:57:24;;;;;;;10.82;2.70;;;;;;;;;;6105367;19;20022;-71
2023/01/06 08:59:28;;;;;;;7.70;2.70;;;;;;;;;;6106524;19;20027;-71
2023/01/06 09:01:35;;;;;;;10.70;2.60;;;;;;;;;;6107158;19;20037;-72
2023/01/06 09:03:44;;;;;;;9.93;2.95;;;;;;;;;;6106011;19;20018;-71
2023/01/06 09:05:54;;;;;;;10.52;2.72;;;;;;;;;;6105400;19;20015;-71
2023/01/06 09:08:00;;;;;;;23.38;4.07;;;;;;;;;;6105728;19;20011;-71
2023/01/06 09:10:11;;;;;;;9.00;2.50;;;;;;;;;;6105735;19;20014;-72
2023/01/06 09:12:16;;;;;;;12.98;2.83;;;;;;;;;;6106464;19;20014;-72
2023/01/06 09:14:21;;;;;;;12.05;2.38;;;;;;;;;;6104113;19;20363;-69
2023/01/06 09:16:26;;;;;;;8.73;1.83;;;;;;;;;;6105190;19;20014;-70
2023/01/06 09:18:33;;;;;;;13.20;3.25;;;;;;;;;;6105249;19;20021;-70
2023/01/06 09:20:38;;;;;;;5.07;2.00;;;;;;;;;;6102374;19;20003;-70
2023/01/06 09:22:43;;;;;;;10.55;2.13;;;;;;;;;;6105162;19;20017;-70
2023/01/06 09:24:48;;;;;;;6.85;2.47;;;;;;;;;;6103333;19;20035;-70
2023/01/06 09:26:56;;;;;;;7.88;2.15;;;;;;;;;;6100872;19;20023;-69
2023/01/06 09:29:01;;;;;;;4.43;1.83;;;;;;;;;;6103975;19;20018;-69
2023/01/06 09:31:06;;;;;;;9.30;2.33;;;;;;;;;;6103314;19;20014;-70
2023/01/06 09:33:10;;;;;;;8.82;2.35;;;;;;;;;;6105726;19;20346;-70
2023/01/06 09:35:16;;;;;;;7.90;2.20;;;;;;;;;;6104052;19;20535;-70
2023/01/06 09:37:21;;;;;;;4.38;1.83;;;;;;;;;;6105519;19;20018;-72
2023/01/06 09:39:26;;;;;;;7.25;1.67;;;;;;;;;;6104175;19;20007;-72
2023/01/06 09:41:45;;;;;;;7.95;2.17;;;;;;;;;;6105213;19;20467;-71
2023/01/06 09:43:54;;;;;;;7.70;2.00;;;;;;;;;;6104221;19;20011;-71
2023/01/06 09:46:02;;;;;;;8.82;2.78;;;;;;;;;;6103003;19;20011;-71
2023/01/06 09:48:10;;;;;;;6.53;2.38;;;;;;;;;;6105247;19;20070;-71
2023/01/06 09:50:32;;;;;;;4.55;1.92;;;;;;;;;;6105311;19;20014;-71
2023/01/06 09:52:45;;;;;;;5.60;1.92;;;;;;;;;;6102104;19;20007;-72
2023/01/06 09:54:56;;;;;;;5.65;1.80;;;;;;;;;;6103773;19;20464;-71
2023/01/06 09:57:04;;;;;;;4.70;2.08;;;;;;;;;;6101837;19;20018;-70
2023/01/06 09:59:20;;;;;;;4.90;1.50;;;;;;;;;;6105062;19;20010;-69
2023/01/06 10:01:32;;;;;;;5.88;1.50;;;;;;;;;;6102595;19;20086;-70
2023/01/06 10:03:37;;;;;;;5.07;1.77;;;;;;;;;;6102260;19;20016;-70
2023/01/06 10:05:49;;;;;;;6.45;1.67;;;;;;;;;;6105135;19;20042;-72
2023/01/06 10:08:01;;;;;;;11.50;1.65;;;;;;;;;;6104815;19;20002;-72
2023/01/06 10:10:17;;;;;;;6.70;1.60;;;;;;;;;;6103862;19;20508;-72
2023/01/06 10:12:34;;;;;;;5.95;1.95;;;;;;;;;;6101722;19;20017;-73
2023/01/06 10:14:48;;;;;;;6.13;1.60;;;;;;;;;;6105796;19;20476;-73
2023/01/06 10:17:06;;;;;;;10.38;1.65;;;;;;;;;;6098877;19;20017;-71
2023/01/06 10:19:20;;;;;;;4.80;1.55;;;;;;;;;;6103138;19;20010;-71
2023/01/06 10:21:31;;;;;;;8.02;1.55;;;;;;;;;;6114077;19;20016;-70
2023/01/06 10:24:06;;;;;;;5.50;1.88;;;;;;;;;;6116392;19;20683;-71
2023/01/06 10:26:15;;;;;;;3.13;1.30;;;;;;;;;;6114159;19;20041;-71
2023/01/06 10:28:28;;;;;;;8.20;1.45;;;;;;;;;;6115355;19;20021;-71
2023/01/06 10:30:41;;;;;;;4.70;1.52;;;;;;;;;;6114429;19;20120;-70
2023/01/06 10:32:52;;;;;;;2.42;1.23;;;;;;;;;;6116341;19;20039;-73
2023/01/06 10:34:58;;;;;;;5.57;1.75;;;;;;;;;;6111279;19;20043;-72
2023/01/06 10:37:05;;;;;;;4.18;1.30;;;;;;;;;;6114309;19;20015;-72
2023/01/06 10:39:17;;;;;;;4.30;1.50;;;;;;;;;;6114901;19;20701;-73
2023/01/06 10:41:29;;;;;;;8.85;1.80;;;;;;;;;;6095886;19;20011;-73
2023/01/06 10:43:34;;;;;;;4.20;1.58;;;;;;;;;;6112782;19;20011;-73
2023/01/06 10:45:43;;;;;;;5.70;1.40;;;;;;;;;;6113917;19;20006;-73
2023/01/06 10:47:48;;;;;;;6.38;2.00;;;;;;;;;;6116660;19;20011;-73
2023/01/06 10:49:53;;;;;;;3.88;1.33;;;;;;;;;;6114901;19;20102;-73
2023/01/06 10:52:02;;;;;;;7.78;1.45;;;;;;;;;;6113236;19;20010;-73
2023/01/06 10:54:10;;;;;;;7.00;2.03;;;;;;;;;;6113224;19;20042;-73
2023/01/06 10:56:18;;;;;;;8.32;2.65;;;;;;;;;;6113367;19;20022;-73
2023/01/06 10:58:28;;;;;;;6.10;1.58;;;;;;;;;;6112967;19;20039;-73
2023/01/06 11:00:36;;;;;;;2.65;1.52;;;;;;;;;;6114511;19;20010;-71
2023/01/06 11:02:47;;;;;;;6.43;1.85;;;;;;;;;;6110106;19;20073;-71
2023/01/06 11:04:56;;;;;;;7.65;2.08;;;;;;;;;;6114515;19;20574;-71
2023/01/06 11:07:10;;;;;;;7.97;1.55;;;;;;;;;;6086688;19;20582;-71
2023/01/06 11:09:34;;;;;;;9.13;1.90;;;;;;;;;;6093798;19;20547;-71
2023/01/06 11:11:51;;;;;;;8.88;1.73;;;;;;;;;;6087063;19;20018;-71
2023/01/06 11:14:04;;;;;;;6.82;1.98;;;;;;;;;;6084073;19;20017;-71
2023/01/06 11:16:20;;;;;;;4.82;1.67;;;;;;;;;;6112939;19;20023;-72
2023/01/06 11:18:33;;;;;;;5.47;1.33;;;;;;;;;;6113164;19;20038;-74
2023/01/06 11:20:45;;;;;;;5.13;1.90;;;;;;;;;;6115884;19;20111;-74
2023/01/06 11:22:50;;;;;;;5.50;1.50;;;;;;;;;;6114541;19;20360;-74
2023/01/06 11:24:56;;;;;;;6.30;1.75;;;;;;;;;;6112750;19;20042;-73
2023/01/06 11:27:16;;;;;;;10.82;1.85;;;;;;;;;;6114949;19;20035;-74
2023/01/06 11:29:29;;;;;;;4.43;1.50;;;;;;;;;;6111493;19;20003;-74
2023/01/06 11:31:34;;;;;;;;;;;;;;;;;;6110236;19;20439;-74
2023/01/06 11:33:49;;;;;;;4.72;1.45;;;;;;;;;;6106683;19;19951;-72
2023/01/06 11:35:54;;;;;;;2.42;1.55;;;;;;;;;;6109583;19;20010;-72
2023/01/06 11:38:03;;;;;;;6.93;3.08;;;;;;;;;;6110028;19;20081;-72
2023/01/06 11:40:19;;;;;;;4.20;1.27;;;;;;;;;;6108451;19;20015;-72
2023/01/06 11:42:25;;;;;;;7.53;1.80;;;;;;;;;;6108706;19;20014;-72
2023/01/06 11:44:33;;;;;;;3.97;1.67;;;;;;;;;;6107745;19;20508;-73
2023/01/06 11:46:42;;;;;;;4.32;1.45;;;;;;;;;;6109111;19;20442;-72
2023/01/06 11:48:59;;;;;;;5.25;1.95;;;;;;;;;;6107096;19;20531;-73
2023/01/06 11:51:05;;;;;;;10.45;2.25;;;;;;;;;;6102244;19;20054;-73
2023/01/06 11:53:18;;;;;;;4.32;1.65;;;;;;;;;;6102908;19;20011;-73
2023/01/06 11:55:26;;;;;;;4.78;2.08;;;;;;;;;;6108001;19;20010;-72
2023/01/06 11:57:42;;;;;;;6.15;1.60;;;;;;;;;;6107016;19;20022;-72
2023/01/06 12:00:01;;;;;;;6.70;1.60;;;;;;;;;;6107701;19;20027;-72
2023/01/06 12:02:11;;;;;;;7.55;1.88;;;;;;;;;;6105414;19;20381;-72
2023/01/06 12:04:26;;;;;;;8.13;1.90;;;;;;;;;;6107858;19;20027;-73
2023/01/06 12:06:35;;;;;;;6.80;2.03;;;;;;;;;;6107523;19;20288;-75
2023/01/06 12:08:43;;;;;;;6.97;2.00;;;;;;;;;;6107893;19;20056;-74
2023/01/06 12:10:53;;;;;;;7.03;2.10;;;;;;;;;;6107304;19;20076;-74
2023/01/06 12:12:58;;;;;;;9.35;1.80;;;;;;;;;;6103608;19;20485;-74
2023/01/06 12:15:03;;;;;;;4.78;1.65;;;;;;;;;;6106575;19;20006;-74
2023/01/06 12:17:12;;;;;;;7.55;2.08;;;;;;;;;;6107834;19;20857;-74
2023/01/06 12:19:23;;;;;;;7.70;2.03;;;;;;;;;;6109267;19;20019;-74
2023/01/06 12:21:32;;;;;;;6.50;1.90;;;;;;;;;;6105728;19;20056;-74
2023/01/06 12:23:39;;;;;;;5.82;1.90;;;;;;;;;;6105033;19;21285;-75
2023/01/06 12:25:46;;;;;;;6.13;2.58;;;;;;;;;;6108512;19;20527;-76
2023/01/06 12:27:55;;;;;;;7.13;1.63;;;;;;;;;;6107683;19;20023;-77
2023/01/06 12:30:06;;;;;;;6.38;1.98;;;;;;;;;;6107426;19;20027;-74
2023/01/06 12:32:18;;;;;;;7.53;2.03;;;;;;;;;;6105107;19;20099;-74
2023/01/06 12:34:33;;;;;;;6.00;2.28;;;;;;;;;;6108783;19;20006;-75
2023/01/06 12:36:43;;;;;;;10.18;1.90;;;;;;;;;;6107994;19;20078;-74
2023/01/06 12:38:54;;;;;;;5.60;1.85;;;;;;;;;;6105911;19;20395;-74
2023/01/06 12:41:04;;;;;;;11.82;2.45;;;;;;;;;;6104175;19;20479;-74
2023/01/06 12:43:19;;;;;;;5.75;2.00;;;;;;;;;;6107009;19;20014;-74
2023/01/06 12:45:33;;;;;;;10.05;2.42;;;;;;;;;;6107181;19;20014;-75
2023/01/06 12:47:42;;;;;;;7.50;2.03;;;;;;;;;;6106150;19;20013;-75
2023/01/06 12:49:53;;;;;;;5.53;1.90;;;;;;;;;;6107020;19;20007;-73
2023/01/06 12:52:00;;;;;;;5.00;1.73;;;;;;;;;;6107567;19;20025;-73